DRI-NNSC Building Weather observations

Data are for 10 minute period ending at time listed.
 Day   Time   Solar   Ave.   Ave.  Ave.  Vector  Max.   Baro.   Total    
  of    of     Rad.   Air    Rel.  Wind   Wind   Wind  Press.  Precip.   
Year   Day            Temp.  Hum.  Speed  Dir.   Gust                    
2015   (PST)  Kw/m2    F      %     mph   deg.    mph    mb.     in.     
-------------------------------------------------------------------------
 142    8:20   0.22   49.9    77    5.4   314      9   846.9    0.00 
 142    8:30   0.19   50.5    75    4.2   319      9   847.0    0.00 
 142    8:40   0.20   50.8    73    4.2   323      8   847.0    0.00 
 142    8:50   0.24   51.1    72    3.1   315      7   847.0    0.00 
 142    9:00   0.57   52.3    70    4.8   325      9   846.9    0.00 
 142    9:10   0.37   52.1    70    5.7   336      9   846.9    0.00 
 142    9:20   0.42   52.1    69    5.9   350     10   846.9    0.00 
 142    9:30   0.48   52.4    69    5.9   354     10   846.9    0.00 
 142    9:40   0.57   53.1    68    4.8   326      9   846.9    0.00 
 142    9:50   0.46   53.6    66    4.4   334      8   846.9    0.00 
 142   10:00   0.54   53.9    65    3.4   312      8   846.8    0.00 
 142   10:10   0.66   55.0    62    3.8   320      8   846.8    0.00 
 142   10:20   0.69   55.1    59    4.1   299      7   846.7    0.00 
 142   10:30   0.51   56.1    58    4.6   317     11   846.7    0.00 
 142   10:40   0.45   55.7    59    4.1   306     10   846.7    0.00 
 142   10:50   0.61   56.4    58    4.2   354     10   846.6    0.00 
 142   11:00   0.71   56.7    56    3.8   328      8   846.5    0.00 
 142   11:10   0.64   57.5    54    2.8   309      8   846.5    0.00 
 142   11:20   0.71   57.8    54    4.5   314     11   846.3    0.00 
 142   11:30   0.99   58.6    52    4.6   314     12   846.2    0.00 
 142   11:40   0.99   59.0    49    3.7   306     10   846.1    0.00 
 142   11:50   1.13   60.3    44    6.6   316     14   846.0    0.00 
 142   12:00   0.85   60.7    43    5.4   321     13   845.9    0.00 
 142   12:10   1.00   60.2    43    6.3   346     13   845.8    0.00 
 142   12:20   1.16   62.0    40    5.7   300     13   845.6    0.00 
 142   12:30   0.85   62.0    39    8.6   338     14   845.5    0.00 
 142   12:40   0.84   61.5    38    6.9   316     15   845.5    0.00 
 142   12:50   0.95   61.9    40    7.8   346     14   845.5    0.00 
 142   13:00   0.70   62.1    44    7.7   328     16   845.3    0.00 
 142   13:10   0.87   61.7    44    6.8   307     12   845.3    0.00 
 142   13:20   0.45   62.0    44    7.3   312     13   845.2    0.00 
 142   13:30   0.75   62.0    42    7.5   323     14   845.1    0.00 
 142   13:40   0.69   63.0    40    5.6   289     13   845.1    0.00 
 142   13:50   0.46   63.4    38    6.7   306     14   845.0    0.00 
 142   14:00   0.24   61.9    39    6.7   311     12   845.0    0.00 
 142   14:10   0.28   61.4    42    8.3   315     17   845.0    0.00 
 142   14:20   0.70   62.5    42   10.0   322     20   844.9    0.00 
 142   14:30   0.93   63.5    41    9.8   325     19   845.0    0.00 
 142   14:40   0.47   62.5    41   11.5   321     21   845.0    0.00 
 142   14:50   0.54   62.4    41   11.2   320     19   845.1    0.00 
 142   15:00   0.83   63.3    39   12.6   326     20   845.1    0.00 
 142   15:10   0.48   62.9    37    9.9   329     19   845.2    0.00 
 142   15:20   0.73   63.1    36   10.0   305     18   845.2    0.00 
 142   15:30   0.79   63.1    36   10.6   303     18   845.2    0.00 
 142   15:40   0.60   62.9    37   10.0   307     18   845.2    0.00 
 142   15:50   0.38   61.9    41    8.1   290     15   845.1    0.00 
 142   16:00   0.35   61.8    44    7.9   259     17   845.0    0.00 
 142   16:10   0.21   61.1    45   10.5   292     20   845.1    0.00 
 142   16:20   0.40   61.8    40   10.6   307     21   845.2    0.00 
 142   16:30   0.22   61.4    42    8.4   274     18   845.3    0.00 
 142   16:40   0.34   60.2    48    9.7   289     20   845.4    0.00 
 142   16:50   0.23   59.7    49    7.4   271     14   845.5    0.00 
 142   17:00   0.12   58.0    52    8.9   293     18   845.5    0.00 
 142   17:10   0.09   58.0    53   13.6   315     25   845.7    0.00 
 142   17:20   0.05   56.5    53   15.4   314     27   845.9    0.00 
 142   17:30   0.02   54.9    58   14.9   316     34   846.1    0.00 
 142   17:40   0.01   53.0    66   17.5   321     29   846.2    0.00 
 142   17:50   0.01   50.5    80   14.5   323     28   846.4    0.02 
 142   18:00   0.00   49.9    85   12.8   315     21   846.7    0.04 
 142   18:10   0.00   49.6    86    9.6   314     16   846.8    0.03 
 142   18:20   0.00   49.4    88   11.9   323     22   846.9    0.02 
 142   18:30   0.00   48.9    89   11.4   323     19   847.1    0.03 
 142   18:40   0.00   48.7    90   10.2   315     19   847.2    0.04 
 142   18:50   0.00   48.8    88    8.4   300     15   847.2    0.03 
 142   19:00   0.00   48.8    86    9.4   300     14   847.2    0.05 
 142   19:10   0.00   48.7    87    7.6   307     13   847.2    0.05 
 142   19:20   0.00   48.7    87    6.6   314     14   847.2    0.00 
 142   19:30   0.00   49.2    84    5.6   301     10   847.3    0.01 
 142   19:40   0.00   49.7    83    3.7   210      7   847.4    0.00 
 142   19:50   0.00   49.8    84    1.3   222      4   847.5    0.00 
 142   20:00   0.00   49.9    86    2.8   165      5   847.6    0.00 
 142   20:10   0.00   49.7    87    3.0   165      5   847.6    0.01 
 142   20:20   0.00   49.6    87    2.6   217      6   847.6    0.00 
 142   20:30   0.00   50.1    82    5.3   238     10   847.7    0.00 
 142   20:40   0.00   50.4    78    7.9   234     15   847.7    0.00 
 142   20:50   0.00   50.4    76    6.8   249     13   847.8    0.00 
 142   21:00   0.00   50.3    78    6.6   246     17   847.8    0.00 
 142   21:10   0.00   50.4    78    3.6   317      8   847.9    0.00 
 142   21:20   0.00   50.1    82    5.3    23      8   848.0    0.00 
 142   21:30   0.00   49.6    89    5.0    34      8   848.0    0.00 
 142   21:40   0.00   49.5    90    2.4    66      5   848.0    0.00 
 142   21:50   0.00   49.8    90    1.8   173      3   848.1    0.00 
 142   22:00   0.00   49.6    88    0.7    96      2   848.1    0.00 
 142   22:10   0.00   49.8    82    0.5   343      2   848.1    0.00 
 142   22:20   0.00   50.0    81    1.2   303      3   848.0    0.00 
 142   22:30   0.00   50.5    76    2.8   286      7   848.0    0.00 
 142   22:40   0.00   50.6    76    1.8   264      4   848.1    0.00 
 142   22:50   0.00   50.5    78    1.6   252      3   848.0    0.00 
 142   23:00   0.00   50.5    76    1.1   265      3   848.1    0.00 
 142   23:10   0.00   50.3    77    1.2   301      3   848.1    0.00 
 142   23:20   0.00   50.3    79    1.1   273      3   848.2    0.00 
 142   23:30   0.00   50.1    81    2.0   281      4   848.2    0.00 
 142   23:40   0.00   49.9    84    1.3   230      3   848.2    0.00 
 142   23:50   0.00   49.9    83    1.8   201      3   848.2    0.00 
 143    0:00   0.00   50.2    81    2.0   235      4   848.1    0.00 
 143    0:10   0.00   50.4    80    2.6   275      6   848.0    0.00 
 143    0:20   0.00   50.8    76    3.8   307      7   848.0    0.00 
 143    0:30   0.00   50.6    79    2.1   228      4   848.1    0.00 
 143    0:40   0.00   49.8    88    1.6   198      4   848.1    0.00 
 143    0:50   0.00   50.2    83    1.8   283      4   848.0    0.00 
 143    1:00   0.00   50.2    80    2.4   286      5   848.0    0.00 
 143    1:10   0.00   50.1    82    1.8   213      4   848.0    0.00 
 143    1:20   0.00   49.9    84    2.5   220      5   848.0    0.00 
 143    1:30   0.00   49.9    82    1.9   218      4   848.0    0.00 
 143    1:40   0.00   49.8    83    0.6    35      2   848.0    0.00 
 143    1:50   0.00   49.8    82    2.1   290      5   848.0    0.00 
 143    2:00   0.00   50.0    81    4.0   283      8   847.9    0.00 
 143    2:10   0.00   49.9    83    4.4   274      7   847.9    0.00 
 143    2:20   0.00   49.9    82    4.0   292      8   847.8    0.00 
 143    2:30   0.00   49.8    82    4.7   311      9   847.9    0.00 
 143    2:40   0.00   49.9    81    3.6   292      7   847.9    0.00 
 143    2:50   0.00   49.8    83    2.6   227      4   847.9    0.00 
 143    3:00   0.00   49.7    84    1.7   191      4   847.8    0.00 
 143    3:10   0.00   49.9    80    1.6   304      4   847.7    0.00 
 143    3:20   0.00   50.0    80    3.1     3      6   847.8    0.00 
 143    3:30   0.00   50.1    79    4.5   339      9   847.8    0.00 
 143    3:40   0.00   50.1    78    4.5   323     10   847.7    0.00 
 143    3:50   0.00   49.6    81    4.4   325      9   847.7    0.00 
 143    4:00   0.00   49.3    82    4.7   306      9   847.7    0.00 
 143    4:10   0.00   49.7    80    3.7   316      8   847.8    0.00 
 143    4:20   0.00   49.4    80    3.8   326      6   847.8    0.00 
 143    4:30   0.00   49.4    80    2.6   299      5   847.9    0.00 
 143    4:40   0.00   49.5    80    3.3   308      9   848.0    0.00 
 143    4:50   0.01   49.5    79    5.1   336      9   848.0    0.00 
 143    5:00   0.01   49.5    79    4.3   315     11   848.0    0.00 
 143    5:10   0.02   49.8    78    7.0   310     15   848.0    0.00 
 143    5:20   0.03   49.8    78    6.4   319     14   848.1    0.00 
 143    5:30   0.03   49.7    79    5.4   321     12   848.1    0.00 
 143    5:40   0.03   49.7    79    5.4   314     10   848.2    0.00 
 143    5:50   0.04   49.9    78    5.0   295      9   848.2    0.00 
 143    6:00   0.05   49.9    79    2.9   317      8   848.3    0.00 
 143    6:10   0.06   50.0    78    2.5   330      6   848.5    0.00 
 143    6:20   0.06   50.1    78    3.7   348      7   848.5    0.00 
 143    6:30   0.07   50.3    78    4.1   353      8   848.6    0.00 
 143    6:40   0.08   50.4    78    2.3   359      5   848.5    0.00 
 143    6:50   0.12   50.9    76    3.1   326      7   848.6    0.00 
 143    7:00   0.19   51.6    75    3.9   326      9   848.7    0.00 
 143    7:10   0.36   52.6    71    7.5   321     12   848.5    0.00 
 143    7:20   0.22   52.6    71    7.3   332     15   848.5    0.00 
 143    7:30   0.21   52.5    70    8.2   312     14   848.6    0.00 
 143    7:40   0.20   52.3    70    7.8   310     13   848.7    0.00 
 143    7:50   0.21   52.5    70    7.3   311     14   848.8    0.00 
 143    8:00   0.30   52.7    69    8.2   314     16   848.8    0.00 
 143    8:10   0.29   52.9    67    9.1   310     15   848.8    0.00 

Return to NNSC graphs page.


Western Regional Climate Center,wrcc@dri.edu